createdAt,value
2023-02-08T00:01:39.017Z,24.90
2023-02-08T00:04:07.788Z,19.60
2023-02-08T00:06:36.488Z,19.30
2023-02-08T00:09:05.322Z,18.17
2023-02-08T00:11:33.925Z,15.13
2023-02-08T00:14:02.590Z,16.87
2023-02-08T00:16:31.692Z,18.93
2023-02-08T00:19:01.818Z,17.70
2023-02-08T00:21:30.546Z,20.07
2023-02-08T00:23:59.129Z,18.23
2023-02-08T00:26:28.028Z,15.67
2023-02-08T00:28:56.663Z,15.30
2023-02-08T00:31:25.449Z,21.60
2023-02-08T00:33:54.062Z,17.93
2023-02-08T00:36:24.299Z,23.03
2023-02-08T00:38:52.821Z,15.60
2023-02-08T00:41:21.598Z,14.97
2023-02-08T00:43:50.099Z,15.57
2023-02-08T00:46:19.180Z,17.10
2023-02-08T00:48:47.790Z,17.67
2023-02-08T00:51:16.797Z,18.27
2023-02-08T00:53:47.687Z,24.93
2023-02-08T00:56:17.280Z,21.80
2023-02-08T00:58:46.211Z,17.40
2023-02-08T01:01:15.375Z,23.37
2023-02-08T01:03:45.032Z,19.57
2023-02-08T01:06:17.301Z,21.67
2023-02-08T01:08:47.745Z,20.10
2023-02-08T01:11:21.966Z,19.37
2023-02-08T01:13:50.796Z,17.00
2023-02-08T01:16:21.890Z,20.43
2023-02-08T01:18:53.014Z,19.03
2023-02-08T01:21:23.333Z,17.27
2023-02-08T01:23:53.800Z,21.03
2023-02-08T01:26:23.767Z,21.57
2023-02-08T01:28:53.188Z,17.33
2023-02-08T01:31:23.876Z,19.60
2023-02-08T01:33:52.708Z,18.83
2023-02-08T01:36:21.500Z,16.97
2023-02-08T01:38:50.399Z,17.73
2023-02-08T01:41:22.595Z,18.80
2023-02-08T01:44:03.726Z,19.57
2023-02-08T01:46:33.525Z,17.17
2023-02-08T01:49:07.384Z,18.90
2023-02-08T01:51:41.228Z,24.57
2023-02-08T01:54:12.501Z,20.00
2023-02-08T01:56:45.914Z,17.90
2023-02-08T01:59:18.986Z,25.13
2023-02-08T02:01:49.579Z,22.83
2023-02-08T02:04:18.716Z,18.13
2023-02-08T02:06:49.998Z,23.00
2023-02-08T02:09:24.214Z,19.93
2023-02-08T02:11:56.048Z,20.30
2023-02-08T02:14:24.862Z,17.93
2023-02-08T02:16:53.700Z,20.77
2023-02-08T02:19:31.220Z,18.70
2023-02-08T02:22:10.784Z,18.67
2023-02-08T02:25:08.467Z,20.20
2023-02-08T02:27:57.401Z,20.07
2023-02-08T02:30:56.871Z,17.43
2023-02-08T02:33:44.873Z,22.00
2023-02-08T02:36:23.806Z,16.13
2023-02-08T02:39:03.066Z,22.87
2023-02-08T02:41:58.545Z,19.37
2023-02-08T02:44:37.178Z,17.23
2023-02-08T02:47:13.883Z,25.00
2023-02-08T02:49:51.716Z,23.07
2023-02-08T02:52:28.001Z,18.17
2023-02-08T02:55:04.300Z,21.67
2023-02-08T02:57:34.876Z,18.90
2023-02-08T03:00:09.385Z,18.80
2023-02-08T03:02:38.097Z,21.00
2023-02-08T03:05:14.016Z,21.67
2023-02-08T03:07:59.516Z,18.20
2023-02-08T03:10:43.509Z,23.07
2023-02-08T03:13:21.842Z,19.90
2023-02-08T03:16:01.922Z,16.80
2023-02-08T03:18:38.091Z,20.00
2023-02-08T03:21:13.666Z,19.47
2023-02-08T03:23:49.280Z,19.03
2023-02-08T03:26:24.719Z,18.77
2023-02-08T03:28:59.906Z,21.30
2023-02-08T03:31:34.247Z,20.13
2023-02-08T03:34:07.930Z,17.47
2023-02-08T03:36:44.376Z,19.23
2023-02-08T03:39:17.490Z,17.93
2023-02-08T03:41:48.400Z,20.73
2023-02-08T03:44:20.910Z,17.77
2023-02-08T03:46:54.337Z,16.57
2023-02-08T03:49:27.877Z,18.43
2023-02-08T03:52:02.794Z,19.37
2023-02-08T03:54:36.675Z,18.87
2023-02-08T03:57:11.281Z,19.17
2023-02-08T03:59:42.619Z,16.90
2023-02-08T04:02:14.874Z,20.63
2023-02-08T04:04:49.161Z,16.13
2023-02-08T04:07:20.816Z,19.03
2023-02-08T04:09:49.772Z,18.37
2023-02-08T04:12:18.315Z,20.50
2023-02-08T04:14:46.827Z,17.67
2023-02-08T04:17:15.917Z,17.30
2023-02-08T04:19:44.890Z,15.83
2023-02-08T04:22:13.400Z,21.20
2023-02-08T04:24:43.530Z,19.33
2023-02-08T04:27:11.977Z,20.53
2023-02-08T04:29:41.768Z,22.23
2023-02-08T04:32:11.931Z,20.60
2023-02-08T04:34:40.884Z,20.03
2023-02-08T04:37:11.197Z,22.93
2023-02-08T04:39:40.108Z,22.27
2023-02-08T04:42:10.141Z,25.13
2023-02-08T04:44:38.806Z,27.90
2023-02-08T04:47:07.369Z,23.83
2023-02-08T04:49:36.237Z,28.83
2023-02-08T04:52:04.927Z,25.80
2023-02-08T04:54:33.955Z,25.60
2023-02-08T04:57:02.660Z,20.90
2023-02-08T04:59:32.669Z,21.23
2023-02-08T05:02:01.284Z,25.17
2023-02-08T05:04:29.798Z,22.63
2023-02-08T05:06:58.918Z,25.83
2023-02-08T05:09:27.987Z,18.40
2023-02-08T05:11:56.461Z,18.10
2023-02-08T05:14:24.998Z,20.70
2023-02-08T05:16:54.917Z,20.93
2023-02-08T05:19:23.673Z,19.30
2023-02-08T05:21:52.112Z,20.57
2023-02-08T05:24:20.742Z,16.73
2023-02-08T05:26:49.266Z,17.30
2023-02-08T05:29:18.073Z,20.77
2023-02-08T05:31:46.721Z,20.83
2023-02-08T05:34:16.773Z,17.43
2023-02-08T05:36:45.269Z,20.67
2023-02-08T05:39:14.074Z,20.20
2023-02-08T05:41:42.581Z,18.70
2023-02-08T05:44:11.037Z,20.33
2023-02-08T05:46:39.693Z,18.97
2023-02-08T05:49:08.787Z,30.77
2023-02-08T05:51:38.968Z,23.87
2023-02-08T05:54:08.051Z,19.37
2023-02-08T05:56:36.510Z,22.10
2023-02-08T05:59:05.775Z,22.63
2023-02-08T06:01:34.618Z,18.10
2023-02-08T06:04:03.320Z,19.40
2023-02-08T06:06:31.990Z,18.13
2023-02-08T06:09:01.959Z,17.83
2023-02-08T06:11:30.478Z,15.07
2023-02-08T06:13:59.116Z,17.60
2023-02-08T06:16:28.031Z,18.23
2023-02-08T06:18:56.745Z,14.80
2023-02-08T06:21:25.231Z,14.60
2023-02-08T06:23:53.727Z,19.97
2023-02-08T06:26:23.735Z,16.00
2023-02-08T06:28:52.303Z,20.30
2023-02-08T06:31:20.846Z,18.50
2023-02-08T06:33:49.395Z,17.33
2023-02-08T06:36:17.986Z,15.13
2023-02-08T06:38:46.523Z,10.87
2023-02-08T06:41:15.399Z,20.77
2023-02-08T06:43:45.504Z,14.40
2023-02-08T06:46:15.453Z,18.07
2023-02-08T06:48:44.022Z,22.30
2023-02-08T06:51:12.980Z,19.20
2023-02-08T06:53:41.558Z,17.97
2023-02-08T06:56:11.975Z,18.83
2023-02-08T06:58:40.560Z,19.23
2023-02-08T07:01:16.085Z,18.00
2023-02-08T07:03:44.716Z,16.03
2023-02-08T07:06:17.746Z,22.57
2023-02-08T07:08:47.073Z,24.23
2023-02-08T07:11:17.546Z,13.87
2023-02-08T07:13:49.036Z,14.43
2023-02-08T07:16:20.133Z,14.10
2023-02-08T07:18:48.764Z,13.40
2023-02-08T07:21:17.719Z,11.70
2023-02-08T07:23:46.404Z,18.00
2023-02-08T07:26:15.724Z,13.23
2023-02-08T07:28:44.407Z,12.17
2023-02-08T07:31:15.646Z,15.30
2023-02-08T07:33:45.908Z,20.20
2023-02-08T07:36:14.511Z,16.67
2023-02-08T07:38:43.513Z,14.33
2023-02-08T07:41:14.350Z,13.73
2023-02-08T07:43:43.610Z,15.10
2023-02-08T07:46:14.274Z,15.53
2023-02-08T07:48:44.634Z,13.93
2023-02-08T07:51:14.649Z,23.10
2023-02-08T07:53:43.331Z,14.43
2023-02-08T07:56:12.259Z,14.33
2023-02-08T07:58:41.944Z,14.07
2023-02-08T08:01:21.923Z,13.87
2023-02-08T08:03:53.975Z,15.20
2023-02-08T08:06:24.222Z,13.20
2023-02-08T08:08:53.826Z,14.57
2023-02-08T08:11:23.315Z,11.93
2023-02-08T08:13:53.119Z,12.33
2023-02-08T08:16:21.999Z,14.40
2023-02-08T08:18:50.957Z,17.10
2023-02-08T08:21:21.010Z,15.20
2023-02-08T08:23:49.593Z,17.03
2023-02-08T08:26:20.480Z,15.67
2023-02-08T08:28:49.975Z,15.10
2023-02-08T08:31:21.651Z,18.33
2023-02-08T08:33:50.887Z,15.33
2023-02-08T08:36:20.975Z,16.83
2023-02-08T08:38:49.731Z,17.13
2023-02-08T08:41:19.375Z,16.47
2023-02-08T08:43:48.375Z,17.17
2023-02-08T08:46:18.007Z,23.40
2023-02-08T08:48:47.658Z,19.53
2023-02-08T08:51:16.594Z,21.20
2023-02-08T08:53:46.797Z,22.03
2023-02-08T08:56:15.361Z,27.73
2023-02-08T08:58:44.802Z,21.87
2023-02-08T09:01:14.588Z,22.33
2023-02-08T09:03:43.334Z,19.20
2023-02-08T09:06:13.923Z,24.27
2023-02-08T09:08:42.697Z,23.83
2023-02-08T09:11:15.516Z,30.87
2023-02-08T09:13:44.703Z,31.27
2023-02-08T09:16:16.427Z,33.27
2023-02-08T09:18:46.249Z,33.90
2023-02-08T09:21:19.676Z,29.30
2023-02-08T09:23:48.824Z,25.80
2023-02-08T09:26:21.303Z,30.63
2023-02-08T09:28:50.374Z,30.30
2023-02-08T09:31:23.680Z,29.60
2023-02-08T09:33:53.750Z,30.13
2023-02-08T09:36:23.824Z,24.27
2023-02-08T09:38:58.060Z,27.40
2023-02-08T09:41:49.987Z,30.47
2023-02-08T09:44:27.011Z,27.43
2023-02-08T09:47:02.365Z,30.73
2023-02-08T09:49:35.670Z,27.73
2023-02-08T09:52:08.635Z,31.37
2023-02-08T09:54:40.507Z,31.37
2023-02-08T09:57:15.826Z,34.30
2023-02-08T09:59:54.337Z,33.20
2023-02-08T10:02:28.509Z,32.60
2023-02-08T10:05:01.410Z,32.63
2023-02-08T10:07:31.142Z,32.53
2023-02-08T10:10:03.577Z,33.23
2023-02-08T10:12:44.893Z,35.70
2023-02-08T10:15:30.943Z,36.93
2023-02-08T10:18:13.999Z,34.73
2023-02-08T10:20:54.676Z,32.37
2023-02-08T10:23:39.808Z,30.73
2023-02-08T10:26:21.902Z,32.53
2023-02-08T10:29:20.178Z,30.77
2023-02-08T10:32:22.095Z,27.33
2023-02-08T10:34:53.674Z,29.03
2023-02-08T10:37:27.663Z,26.70
2023-02-08T10:39:57.593Z,21.43
2023-02-08T10:42:29.518Z,24.87
2023-02-08T10:45:22.440Z,22.40
2023-02-08T10:47:58.050Z,22.60
2023-02-08T10:50:34.447Z,23.07
2023-02-08T10:53:04.261Z,18.80
2023-02-08T10:55:36.438Z,19.13
2023-02-08T10:58:07.817Z,15.70
2023-02-08T11:00:40.443Z,16.17
2023-02-08T11:03:18.115Z,15.53
2023-02-08T11:05:47.610Z,10.47
2023-02-08T11:08:19.857Z,12.20
2023-02-08T11:10:58.828Z,10.50
2023-02-08T11:13:36.689Z,10.60
2023-02-08T11:16:08.546Z,11.63
2023-02-08T11:18:41.488Z,10.03
2023-02-08T11:21:13.666Z,11.90
2023-02-08T11:23:44.394Z,12.20
2023-02-08T11:26:22.726Z,11.70
2023-02-08T11:29:03.826Z,9.80
2023-02-08T11:31:35.920Z,10.60
2023-02-08T11:34:07.338Z,9.20
2023-02-08T11:36:38.158Z,10.47
2023-02-08T11:39:24.458Z,8.40
2023-02-08T11:41:55.768Z,8.93
2023-02-08T11:44:28.834Z,9.80
2023-02-08T11:47:01.011Z,8.40
2023-02-08T11:49:38.588Z,8.30
2023-02-08T11:52:09.278Z,8.00
2023-02-08T11:54:41.534Z,7.93
2023-02-08T11:57:19.447Z,9.53
2023-02-08T11:59:52.074Z,8.23
2023-02-08T12:02:37.891Z,8.77
2023-02-08T12:05:15.063Z,8.50
2023-02-08T12:08:07.066Z,7.40
2023-02-08T12:11:02.487Z,8.40
2023-02-08T12:14:01.878Z,8.07
2023-02-08T12:16:51.034Z,7.23
2023-02-08T12:19:52.653Z,8.33
2023-02-08T12:22:27.261Z,10.27
2023-02-08T12:25:11.668Z,8.00
2023-02-08T12:27:50.336Z,6.67
2023-02-08T12:30:28.267Z,6.73
2023-02-08T12:33:29.982Z,7.43
2023-02-08T12:36:22.906Z,8.30
2023-02-08T12:39:26.175Z,6.83
2023-02-08T12:42:27.381Z,6.40
2023-02-08T12:45:17.803Z,5.63
2023-02-08T12:48:04.360Z,5.93
2023-02-08T12:50:42.124Z,7.73
2023-02-08T12:53:22.172Z,9.60
2023-02-08T12:55:56.058Z,6.30
2023-02-08T12:58:30.326Z,5.77
2023-02-08T13:01:04.124Z,5.80
2023-02-08T13:03:40.813Z,7.80
2023-02-08T13:06:13.854Z,5.40
2023-02-08T13:08:48.115Z,7.30
2023-02-08T13:11:25.803Z,5.97
2023-02-08T13:14:00.481Z,5.43
2023-02-08T13:16:34.760Z,6.97
2023-02-08T13:19:20.113Z,5.10
2023-02-08T13:21:49.726Z,5.33
2023-02-08T13:24:29.784Z,7.43
2023-02-08T13:26:59.991Z,8.50
2023-02-08T13:29:30.724Z,5.07
2023-02-08T13:32:04.256Z,5.17
2023-02-08T13:34:38.703Z,6.57
2023-02-08T13:37:26.012Z,5.37
2023-02-08T13:40:04.444Z,4.83
2023-02-08T13:42:39.834Z,8.43
2023-02-08T13:45:14.379Z,5.83
2023-02-08T13:47:49.659Z,5.40
2023-02-08T13:50:44.988Z,3.67
2023-02-08T13:53:15.904Z,5.70
2023-02-08T13:56:01.409Z,4.20
2023-02-08T13:59:05.510Z,5.27
2023-02-08T14:01:37.769Z,8.77
2023-02-08T14:04:34.656Z,7.17
2023-02-08T14:07:14.779Z,7.57
2023-02-08T14:09:54.696Z,7.20
2023-02-08T14:12:28.640Z,15.40
2023-02-08T14:15:22.958Z,11.87
2023-02-08T14:17:58.365Z,10.90
2023-02-08T14:20:32.592Z,9.43
2023-02-08T14:23:06.502Z,7.27
2023-02-08T14:25:45.960Z,6.33
2023-02-08T14:28:31.849Z,7.50
2023-02-08T14:31:07.247Z,5.73
2023-02-08T14:33:41.127Z,6.73
2023-02-08T14:36:25.924Z,7.97
2023-02-08T14:39:11.686Z,14.20
2023-02-08T14:41:46.491Z,15.73
2023-02-08T14:44:55.011Z,16.23
2023-02-08T14:48:04.746Z,17.33
2023-02-08T14:50:43.733Z,12.17
2023-02-08T14:53:34.808Z,19.50
2023-02-08T14:56:09.814Z,11.60
2023-02-08T14:58:45.553Z,8.83
2023-02-08T15:01:20.167Z,6.07
2023-02-08T15:03:52.284Z,5.53
2023-02-08T15:06:55.214Z,6.50
2023-02-08T15:09:26.037Z,5.47
2023-02-08T15:12:01.958Z,7.40
2023-02-08T15:14:33.281Z,5.97
2023-02-08T15:17:03.343Z,10.60
2023-02-08T15:19:35.746Z,9.60
2023-02-08T15:22:36.893Z,8.07
2023-02-08T15:25:26.107Z,5.50
2023-02-08T15:27:57.452Z,5.77
2023-02-08T15:30:38.392Z,6.00
2023-02-08T15:33:15.317Z,6.93
2023-02-08T15:35:46.039Z,6.87
2023-02-08T15:38:20.331Z,6.33
2023-02-08T15:41:03.837Z,9.83
2023-02-08T15:43:34.008Z,14.93
2023-02-08T15:46:06.023Z,9.40
2023-02-08T15:48:38.367Z,10.97
2023-02-08T15:51:11.660Z,7.03
2023-02-08T15:53:44.347Z,8.07
2023-02-08T15:56:26.990Z,6.63
2023-02-08T15:59:01.750Z,7.70
2023-02-08T16:01:32.951Z,16.10
2023-02-08T16:04:06.339Z,10.20
2023-02-08T16:06:41.631Z,11.97
2023-02-08T16:09:20.341Z,17.47
2023-02-08T16:11:50.706Z,18.17
2023-02-08T16:14:27.053Z,13.00
2023-02-08T16:16:59.459Z,6.97
2023-02-08T16:19:29.871Z,9.53
2023-02-08T16:22:17.042Z,12.60
2023-02-08T16:24:51.319Z,6.90
2023-02-08T16:27:27.129Z,8.70
2023-02-08T16:29:59.833Z,8.53
2023-02-08T16:32:33.756Z,7.93
2023-02-08T16:35:13.600Z,7.53
2023-02-08T16:37:42.674Z,8.17
2023-02-08T16:40:51.613Z,6.53
2023-02-08T16:43:27.103Z,8.13
2023-02-08T16:46:24.742Z,8.97
2023-02-08T16:48:56.024Z,7.27
2023-02-08T16:51:36.212Z,6.37
2023-02-08T16:54:08.822Z,7.77
2023-02-08T16:56:42.561Z,6.57
2023-02-08T16:59:13.657Z,7.17
2023-02-08T17:01:44.484Z,8.60
2023-02-08T17:04:13.291Z,8.93
2023-02-08T17:06:45.895Z,7.77
2023-02-08T17:09:16.888Z,7.90
2023-02-08T17:11:48.466Z,9.37
2023-02-08T17:14:18.419Z,10.57
2023-02-08T17:16:48.954Z,8.73
2023-02-08T17:19:19.709Z,10.30
2023-02-08T17:21:49.248Z,7.07
2023-02-08T17:24:18.049Z,10.93
2023-02-08T17:26:48.790Z,9.70
2023-02-08T17:29:17.792Z,9.77
2023-02-08T17:31:47.430Z,9.63
2023-02-08T17:34:18.659Z,9.83
2023-02-08T17:36:48.042Z,12.57
2023-02-08T17:39:18.010Z,12.63
2023-02-08T17:41:49.029Z,7.23
2023-02-08T17:44:22.129Z,9.33
2023-02-08T17:46:54.145Z,8.00
2023-02-08T17:49:23.883Z,8.57
2023-02-08T17:51:53.152Z,7.93
2023-02-08T17:54:22.322Z,6.43
2023-02-08T17:56:58.225Z,11.83
2023-02-08T17:59:27.536Z,10.57
2023-02-08T18:01:58.480Z,10.00
2023-02-08T18:04:30.500Z,12.70
2023-02-08T18:06:59.202Z,10.60
2023-02-08T18:09:28.507Z,10.50
2023-02-08T18:11:59.350Z,11.13
2023-02-08T18:14:28.737Z,8.13
2023-02-08T18:16:59.581Z,7.30
2023-02-08T18:19:28.468Z,9.47
2023-02-08T18:22:01.237Z,7.03
2023-02-08T18:24:30.090Z,10.10
2023-02-08T18:27:01.287Z,6.80
2023-02-08T18:29:33.046Z,8.33
2023-02-08T18:32:02.054Z,8.57
2023-02-08T18:34:30.909Z,7.13
2023-02-08T18:37:03.675Z,9.87
2023-02-08T18:39:32.789Z,9.20
2023-02-08T18:42:03.706Z,9.63
2023-02-08T18:44:36.691Z,7.30
2023-02-08T18:47:06.593Z,8.23
2023-02-08T18:49:40.945Z,6.13
2023-02-08T18:52:11.032Z,6.97
2023-02-08T18:54:41.902Z,5.40
2023-02-08T18:57:12.530Z,7.57
2023-02-08T18:59:41.509Z,6.03
2023-02-08T19:02:12.565Z,6.87
2023-02-08T19:04:42.585Z,8.33
2023-02-08T19:07:11.498Z,6.03
2023-02-08T19:09:44.382Z,6.67
2023-02-08T19:12:15.808Z,6.67
2023-02-08T19:14:46.154Z,6.77
2023-02-08T19:17:15.078Z,6.93
2023-02-08T19:19:44.270Z,8.07
2023-02-08T19:22:13.527Z,7.57
2023-02-08T19:24:43.423Z,8.57
2023-02-08T19:27:13.810Z,8.93
2023-02-08T19:29:44.687Z,9.13
2023-02-08T19:32:13.713Z,7.53
2023-02-08T19:34:42.970Z,8.30
2023-02-08T19:37:11.979Z,7.40
2023-02-08T19:39:52.174Z,5.70
2023-02-08T19:42:22.703Z,5.87
2023-02-08T19:44:55.445Z,6.17
2023-02-08T19:47:43.444Z,8.10
2023-02-08T19:50:17.549Z,7.03
2023-02-08T19:52:46.402Z,7.40
2023-02-08T19:55:15.397Z,5.87
2023-02-08T19:57:46.138Z,7.77
2023-02-08T20:00:23.728Z,6.23
2023-02-08T20:02:53.531Z,6.90
2023-02-08T20:05:23.156Z,6.17
2023-02-08T20:07:52.437Z,7.87
2023-02-08T20:10:22.345Z,9.47
2023-02-08T20:12:53.516Z,9.50
2023-02-08T20:15:22.568Z,7.40
2023-02-08T20:17:51.337Z,9.03
2023-02-08T20:20:21.749Z,10.43
2023-02-08T20:22:51.413Z,7.93
2023-02-08T20:25:24.067Z,8.37
2023-02-08T20:27:54.681Z,8.57
2023-02-08T20:30:25.374Z,10.00
2023-02-08T20:32:57.058Z,10.23
2023-02-08T20:35:26.563Z,21.10
2023-02-08T20:37:56.480Z,24.97
2023-02-08T20:40:25.514Z,21.77
2023-02-08T20:42:55.909Z,21.83
2023-02-08T20:45:26.327Z,22.57
2023-02-08T20:47:55.485Z,20.30
2023-02-08T20:50:24.844Z,24.37
2023-02-08T20:52:54.424Z,20.10
2023-02-08T20:55:23.734Z,20.23
2023-02-08T20:57:52.805Z,21.50
2023-02-08T21:00:33.531Z,19.70
2023-02-08T21:03:09.133Z,20.70
2023-02-08T21:05:39.796Z,19.53
2023-02-08T21:08:09.009Z,18.93
2023-02-08T21:10:41.118Z,18.20
2023-02-08T21:13:09.950Z,17.53
2023-02-08T21:15:44.790Z,17.10
2023-02-08T21:18:13.711Z,20.77
2023-02-08T21:20:43.403Z,22.60
2023-02-08T21:23:12.525Z,22.27
2023-02-08T21:25:45.038Z,33.33
2023-02-08T21:28:14.284Z,34.27
2023-02-08T21:30:45.156Z,30.73
2023-02-08T21:33:14.337Z,24.43
2023-02-08T21:35:43.082Z,21.80
2023-02-08T21:38:11.936Z,19.20
2023-02-08T21:40:40.753Z,17.20
2023-02-08T21:43:09.895Z,21.17
2023-02-08T21:45:38.598Z,21.77
2023-02-08T21:48:10.604Z,19.93
2023-02-08T21:50:57.675Z,16.17
2023-02-08T21:53:44.230Z,14.77
2023-02-08T21:56:13.557Z,13.07
2023-02-08T21:58:42.340Z,13.10
2023-02-08T22:01:11.248Z,13.70
2023-02-08T22:03:41.514Z,14.50
2023-02-08T22:06:10.529Z,16.80
2023-02-08T22:08:39.443Z,18.27
2023-02-08T22:11:09.036Z,19.50
2023-02-08T22:13:38.081Z,22.90
2023-02-08T22:16:09.743Z,21.63
2023-02-08T22:18:41.568Z,25.40
2023-02-08T22:21:12.610Z,22.17
2023-02-08T22:23:41.706Z,23.80
2023-02-08T22:26:10.925Z,21.00
2023-02-08T22:28:39.756Z,16.63
2023-02-08T22:31:08.758Z,20.37
2023-02-08T22:33:37.757Z,15.67
2023-02-08T22:36:08.782Z,19.23
2023-02-08T22:38:40.136Z,19.20
2023-02-08T22:41:12.603Z,21.90
2023-02-08T22:43:41.542Z,23.60
2023-02-08T22:46:11.228Z,23.70
2023-02-08T22:48:41.249Z,24.93
2023-02-08T22:51:10.803Z,25.67
2023-02-08T22:53:41.331Z,22.70
2023-02-08T22:56:10.633Z,17.27
2023-02-08T22:58:39.259Z,21.47
2023-02-08T23:01:11.896Z,22.47
2023-02-08T23:03:41.139Z,20.40
2023-02-08T23:06:11.865Z,22.60
2023-02-08T23:08:43.845Z,18.33
2023-02-08T23:11:15.051Z,20.10
2023-02-08T23:13:44.325Z,16.97
2023-02-08T23:16:14.334Z,17.57
2023-02-08T23:18:43.320Z,17.37
2023-02-08T23:21:15.543Z,20.93
2023-02-08T23:23:46.998Z,24.90
2023-02-08T23:26:19.137Z,22.50
2023-02-08T23:28:51.280Z,24.53
2023-02-08T23:31:20.390Z,32.20
2023-02-08T23:33:49.794Z,32.43
2023-02-08T23:36:20.678Z,28.80
2023-02-08T23:38:51.191Z,31.97
2023-02-08T23:41:21.846Z,36.47
2023-02-08T23:43:51.939Z,43.77
2023-02-08T23:46:22.519Z,39.00
2023-02-08T23:48:51.655Z,37.93
2023-02-08T23:51:21.899Z,31.07
2023-02-08T23:53:53.638Z,26.47
2023-02-08T23:56:24.322Z,29.20
2023-02-08T23:58:54.871Z,20.00
